METAR Data
IDs: Format: Raw Decoded Include TAF

Data at: 0155 UTC 14 May 2021

KPLD 140135Z AUTO 00000KT 10SM CLR 12/00 A3031 RMK AO2
KPLD 140115Z AUTO 00000KT 10SM CLR 14/M04 A3031 RMK AO2
KPLD 140055Z AUTO 00000KT 10SM CLR 15/M04 A3031 RMK AO2
KPLD 140035Z AUTO 00000KT 10SM CLR 16/M03 A3031 RMK AO2
KPLD 140015Z AUTO 00000KT 10SM CLR 17/M06 A3031 RMK AO2
KPLD 132355Z AUTO 00000KT 10SM CLR 17/M07 A3030 RMK AO2
KPLD 132335Z AUTO 02004KT 2 1/2SM HZ CLR 17/M08 A3030 RMK AO2 VIS 1 1/2V5
KPLD 132315Z AUTO 00000KT 10SM CLR 18/M08 A3030 RMK AO2
KPLD 132255Z AUTO 01005KT 10SM CLR 18/M07 A3030 RMK AO2
KPLD 132235Z AUTO 00000KT 10SM SCT085 18/M07 A3031 RMK AO2
KPLD 132215Z AUTO 05004KT 10SM SCT085 18/M07 A3031 RMK AO2
KPLD 132155Z AUTO 05005KT 10SM SCT085 18/M07 A3031 RMK AO2
KPLD 132135Z AUTO 35006KT 10SM SCT085 18/M07 A3032 RMK AO2
KPLD 132055Z AUTO 26005KT 10SM SCT085 18/M06 A3033 RMK AO2
KPLD 132035Z AUTO 33005KT 10SM SCT085 18/M06 A3033 RMK AO2
KPLD 132015Z AUTO 00000KT 10SM SCT085 18/M06 A3034 RMK AO2
KPLD 131955Z AUTO 14004KT 10SM SCT085 18/M05 A3034 RMK AO2
KPLD 131935Z AUTO 08005KT 10SM BKN085 18/M05 A3035 RMK AO2
KPLD 131915Z AUTO 00000KT 10SM CLR 17/M09 A3035 RMK AO2
KPLD 131855Z AUTO 10005KT 10SM CLR 18/M05 A3036 RMK AO2
KPLD 131835Z AUTO 00000KT 10SM SCT085 17/M08 A3037 RMK AO2
KPLD 131815Z AUTO 02003KT 10SM BKN085 17/M06 A3037 RMK AO2
KPLD 131755Z AUTO 07003KT 10SM SCT085 17/M06 A3038 RMK AO2
KPLD 131735Z AUTO 00000KT 10SM SCT075 17/M07 A3038 RMK AO2
KPLD 131715Z AUTO 00000KT 10SM BKN075 16/M07 A3039 RMK AO2
KPLD 131655Z AUTO 00000KT 10SM SCT075 17/M05 A3040 RMK AO2
KPLD 131635Z AUTO 07004KT 10SM CLR 17/M06 A3041 RMK AO2
KPLD 131615Z AUTO 02005KT 10SM CLR 17/M05 A3041 RMK AO2
KPLD 131555Z AUTO 36004KT 10SM CLR 16/M04 A3041 RMK AO2
KPLD 131535Z AUTO 00000KT 10SM CLR 16/M03 A3041 RMK AO2
KPLD 131515Z AUTO 31003KT 10SM CLR 16/M02 A3041 RMK AO2
KPLD 131455Z AUTO 36003KT 10SM CLR 15/M02 A3041 RMK AO2
KPLD 131435Z AUTO 26004KT 10SM CLR 15/M02 A3041 RMK AO2
KPLD 131415Z AUTO 29003KT 10SM CLR 14/M02 A3041 RMK AO2
KPLD 131355Z AUTO 29003KT 10SM CLR 13/01 A3042 RMK AO2
KPLD 131335Z AUTO 00000KT 10SM CLR 12/02 A3042 RMK AO2
KPLD 131315Z AUTO 00000KT 7SM CLR 11/02 A3042 RMK AO2
KPLD 131255Z AUTO 00000KT 10SM CLR 10/02 A3042 RMK AO2
KPLD 131235Z AUTO 00000KT 10SM CLR 08/02 A3042 RMK AO2
KPLD 131215Z AUTO 00000KT 10SM CLR 07/03 A3042 RMK AO2
KPLD 131155Z AUTO 00000KT 10SM CLR 06/03 A3041 RMK AO2
KPLD 131135Z AUTO 00000KT 10SM CLR 05/02 A3041 RMK AO2
KPLD 131115Z AUTO 00000KT 10SM CLR 03/01 A3040 RMK AO2
KPLD 131055Z AUTO 00000KT 10SM CLR 03/01 A3039 RMK AO2
KPLD 131035Z AUTO 00000KT 10SM CLR 03/01 A3039 RMK AO2
KPLD 131015Z AUTO 00000KT 10SM CLR 03/01 A3039 RMK AO2
KPLD 130955Z AUTO 00000KT 10SM CLR 03/01 A3038 RMK AO2
KPLD 130935Z AUTO 00000KT 10SM CLR 03/01 A3038 RMK AO2
KPLD 130915Z AUTO 00000KT 10SM CLR 03/01 A3038 RMK AO2
KPLD 130855Z AUTO 00000KT 10SM CLR 04/01 A3038 RMK AO2
KPLD 130835Z AUTO 00000KT 10SM CLR 05/00 A3038 RMK AO2
KPLD 130815Z AUTO 00000KT 10SM CLR 05/00 A3038 RMK AO2
KPLD 130755Z AUTO 00000KT 10SM CLR 05/00 A3038 RMK AO2
KPLD 130735Z AUTO 00000KT 10SM CLR 05/00 A3038 RMK AO2
KPLD 130715Z AUTO 00000KT 10SM CLR 05/00 A3038 RMK AO2
KPLD 130655Z AUTO 00000KT 10SM CLR 05/01 A3038 RMK AO2
KPLD 130635Z AUTO 00000KT 10SM CLR 05/00 A3038 RMK AO2
KPLD 130615Z AUTO 00000KT 10SM CLR 06/00 A3038 RMK AO2
KPLD 130555Z AUTO 00000KT 10SM CLR 06/01 A3038 RMK AO2
KPLD 130535Z AUTO 00000KT 10SM CLR 06/01 A3038 RMK AO2
KPLD 130515Z AUTO 00000KT 10SM CLR 07/01 A3038 RMK AO2
KPLD 130455Z AUTO 00000KT 10SM CLR 07/00 A3038 RMK AO2
KPLD 130435Z AUTO 00000KT 10SM CLR 07/00 A3038 RMK AO2
KPLD 130415Z AUTO 00000KT 10SM CLR 08/00 A3038 RMK AO2
KPLD 130355Z AUTO 00000KT 10SM CLR 08/00 A3038 RMK AO2
KPLD 130335Z AUTO 00000KT 10SM CLR 07/01 A3038 RMK AO2
KPLD 130315Z AUTO 00000KT 10SM CLR 08/01 A3038 RMK AO2
KPLD 130255Z AUTO 00000KT 10SM CLR 09/00 A3038 RMK AO2
KPLD 130235Z AUTO 00000KT 10SM CLR 09/00 A3038 RMK AO2
KPLD 130215Z AUTO 00000KT 10SM CLR 10/00 A3037 RMK AO2
KPLD 130155Z AUTO 00000KT 10SM CLR 10/00 A3036 RMK AO2
KPLD 130135Z AUTO 00000KT 10SM CLR 11/00 A3036 RMK AO2
KPLD 130115Z AUTO 00000KT 10SM CLR 11/00 A3036 RMK AO2
KPLD 130055Z AUTO 00000KT 10SM CLR 13/M04 A3035 RMK AO2
KPLD 130035Z AUTO 00000KT 10SM CLR 14/M05 A3035 RMK AO2
KPLD 130015Z AUTO 04003KT 10SM CLR 15/M05 A3035 RMK AO2
KPLD 122355Z AUTO 02005KT 10SM SCT070 15/M06 A3035 RMK AO2
KPLD 122335Z AUTO 01007KT 10SM SCT070 15/M05 A3035 RMK AO2
KPLD 122315Z AUTO 04004KT 10SM CLR 15/M04 A3035 RMK AO2
KPLD 122255Z AUTO 04005KT 10SM CLR 15/M04 A3035 RMK AO2
KPLD 122235Z AUTO 03008KT 10SM SCT065 16/M05 A3036 RMK AO2
KPLD 122215Z AUTO 06004KT 10SM BKN065 15/M05 A3036 RMK AO2
KPLD 122155Z AUTO 02009G15KT 10SM BKN065 16/M03 A3036 RMK AO2
KPLD 122135Z AUTO 03007G17KT 10SM BKN065 16/M05 A3036 RMK AO2
KPLD 122115Z AUTO 09006KT 10SM BKN065 16/M04 A3036 RMK AO2
KPLD 122055Z AUTO 07008KT 10SM SCT065 16/M03 A3036 RMK AO2
KPLD 122035Z AUTO 00000KT 10SM SCT065 16/M03 A3037 RMK AO2
KPLD 122015Z AUTO 03007G16KT 10SM SCT065 16/M03 A3038 RMK AO2
KPLD 121955Z AUTO 04005KT 10SM SCT060 15/M04 A3038 RMK AO2
KPLD 121935Z AUTO 03007KT 10SM BKN060 15/M04 A3038 RMK AO2
KPLD 121915Z AUTO 08006KT 010V120 10SM SCT060 15/M03 A3039 RMK AO2
KPLD 121855Z AUTO 03005KT 10SM SCT060 15/M03 A3039 RMK AO2
KPLD 121835Z AUTO 09003KT 7SM SCT060 14/M03 A3040 RMK AO2
KPLD 121815Z AUTO 08005KT 10SM SCT060 14/M03 A3040 RMK AO2
KPLD 121755Z AUTO 09005KT 10SM SCT060 14/M03 A3041 RMK AO2
KPLD 121735Z AUTO 08004KT 10SM SCT060 13/M04 A3041 RMK AO2
KPLD 121715Z AUTO 01007KT 10SM SCT060 14/M03 A3041 RMK AO2
KPLD 121655Z AUTO 01008KT 10SM CLR 13/M03 A3042 RMK AO2
KPLD 121635Z AUTO 01005KT 10SM CLR 13/M04 A3042 RMK AO2
KPLD 121615Z AUTO 00000KT 10SM CLR 13/M04 A3042 RMK AO2
KPLD 121555Z AUTO 01006G09KT 10SM CLR 12/M04 A3042 RMK AO2
KPLD 121535Z AUTO 03007KT 10SM CLR 12/M04 A3042 RMK AO2
KPLD 121515Z AUTO 04006KT 10SM CLR 12/M03 A3042 RMK AO2
KPLD 121455Z AUTO 05006KT 10SM CLR 11/M03 A3043 RMK AO2
KPLD 121435Z AUTO 04006KT 010V070 10SM CLR 11/M01 A3043 RMK AO2
KPLD 121415Z AUTO 05005KT 10SM CLR 10/M02 A3043 RMK AO2